sensor_id;sensor_type;location;lat;lon;timestamp;temperature;humidity
9446;DHT22;4761;49.490;10.908;2023-07-20T00:02:15;24.80;55.00
9446;DHT22;4761;49.490;10.908;2023-07-20T00:04:41;24.80;54.70
9446;DHT22;4761;49.490;10.908;2023-07-20T00:07:06;24.80;54.70
9446;DHT22;4761;49.490;10.908;2023-07-20T00:09:32;24.80;54.70
9446;DHT22;4761;49.490;10.908;2023-07-20T00:11:58;24.80;54.70
9446;DHT22;4761;49.490;10.908;2023-07-20T00:14:25;24.80;54.70
9446;DHT22;4761;49.490;10.908;2023-07-20T00:16:51;24.70;54.70
9446;DHT22;4761;49.490;10.908;2023-07-20T00:19:25;24.80;54.80
9446;DHT22;4761;49.490;10.908;2023-07-20T00:21:51;24.80;54.70
9446;DHT22;4761;49.490;10.908;2023-07-20T00:24:17;24.80;54.80
9446;DHT22;4761;49.490;10.908;2023-07-20T00:26:43;24.80;54.80
9446;DHT22;4761;49.490;10.908;2023-07-20T00:29:09;24.80;54.80
9446;DHT22;4761;49.490;10.908;2023-07-20T00:31:35;24.70;54.80
9446;DHT22;4761;49.490;10.908;2023-07-20T00:34:05;24.70;54.80
9446;DHT22;4761;49.490;10.908;2023-07-20T00:36:31;24.70;54.80
9446;DHT22;4761;49.490;10.908;2023-07-20T00:38:57;24.70;54.80
9446;DHT22;4761;49.490;10.908;2023-07-20T00:41:22;24.70;54.80
9446;DHT22;4761;49.490;10.908;2023-07-20T00:43:49;24.70;54.80
9446;DHT22;4761;49.490;10.908;2023-07-20T00:46:16;24.70;54.80
9446;DHT22;4761;49.490;10.908;2023-07-20T00:48:41;24.70;54.80
9446;DHT22;4761;49.490;10.908;2023-07-20T00:51:07;24.70;54.90
9446;DHT22;4761;49.490;10.908;2023-07-20T00:53:33;24.70;54.90
9446;DHT22;4761;49.490;10.908;2023-07-20T00:55:59;24.70;54.90
9446;DHT22;4761;49.490;10.908;2023-07-20T00:58:24;24.70;54.90
9446;DHT22;4761;49.490;10.908;2023-07-20T01:00:50;24.70;55.00
9446;DHT22;4761;49.490;10.908;2023-07-20T01:03:16;24.70;55.00
9446;DHT22;4761;49.490;10.908;2023-07-20T01:05:47;24.70;55.00
9446;DHT22;4761;49.490;10.908;2023-07-20T01:08:53;24.70;55.00
9446;DHT22;4761;49.490;10.908;2023-07-20T01:13:51;24.70;55.00
9446;DHT22;4761;49.490;10.908;2023-07-20T01:16:17;24.70;55.10
9446;DHT22;4761;49.490;10.908;2023-07-20T01:18:43;24.70;55.10
9446;DHT22;4761;49.490;10.908;2023-07-20T01:21:15;24.70;55.10
9446;DHT22;4761;49.490;10.908;2023-07-20T01:29:51;24.70;55.10
9446;DHT22;4761;49.490;10.908;2023-07-20T01:32:23;24.60;55.10
9446;DHT22;4761;49.490;10.908;2023-07-20T01:34:52;24.70;55.20
9446;DHT22;4761;49.490;10.908;2023-07-20T01:37:20;24.60;55.10
9446;DHT22;4761;49.490;10.908;2023-07-20T01:39:46;24.60;55.10
9446;DHT22;4761;49.490;10.908;2023-07-20T01:42:12;24.60;55.10
9446;DHT22;4761;49.490;10.908;2023-07-20T01:44:38;24.60;55.10
9446;DHT22;4761;49.490;10.908;2023-07-20T01:47:04;24.60;55.10
9446;DHT22;4761;49.490;10.908;2023-07-20T01:49:29;24.60;55.10
9446;DHT22;4761;49.490;10.908;2023-07-20T01:51:55;24.60;55.00
9446;DHT22;4761;49.490;10.908;2023-07-20T01:54:20;24.60;55.00
9446;DHT22;4761;49.490;10.908;2023-07-20T01:56:46;24.60;55.00
9446;DHT22;4761;49.490;10.908;2023-07-20T01:59:12;24.60;55.10
9446;DHT22;4761;49.490;10.908;2023-07-20T02:01:37;24.60;55.10
9446;DHT22;4761;49.490;10.908;2023-07-20T02:04:03;24.60;55.00
9446;DHT22;4761;49.490;10.908;2023-07-20T02:06:28;24.60;55.00
9446;DHT22;4761;49.490;10.908;2023-07-20T02:08:54;24.60;55.00
9446;DHT22;4761;49.490;10.908;2023-07-20T02:11:19;24.60;55.10
9446;DHT22;4761;49.490;10.908;2023-07-20T02:13:45;24.60;55.10
9446;DHT22;4761;49.490;10.908;2023-07-20T02:16:10;24.60;55.10
9446;DHT22;4761;49.490;10.908;2023-07-20T02:18:36;24.60;55.00
9446;DHT22;4761;49.490;10.908;2023-07-20T02:21:02;24.60;55.10
9446;DHT22;4761;49.490;10.908;2023-07-20T02:23:28;24.60;55.00
9446;DHT22;4761;49.490;10.908;2023-07-20T02:25:53;24.60;55.00
9446;DHT22;4761;49.490;10.908;2023-07-20T02:28:19;24.60;54.90
9446;DHT22;4761;49.490;10.908;2023-07-20T02:30:44;24.60;55.00
9446;DHT22;4761;49.490;10.908;2023-07-20T02:33:10;24.60;55.00
9446;DHT22;4761;49.490;10.908;2023-07-20T02:35:35;24.60;55.10
9446;DHT22;4761;49.490;10.908;2023-07-20T02:38:01;24.60;55.00
9446;DHT22;4761;49.490;10.908;2023-07-20T02:40:26;24.60;55.00
9446;DHT22;4761;49.490;10.908;2023-07-20T02:42:53;24.60;55.10
9446;DHT22;4761;49.490;10.908;2023-07-20T02:45:19;24.60;55.00
9446;DHT22;4761;49.490;10.908;2023-07-20T02:47:44;24.60;55.10
9446;DHT22;4761;49.490;10.908;2023-07-20T02:50:10;24.60;55.60
9446;DHT22;4761;49.490;10.908;2023-07-20T02:52:38;24.60;55.60
9446;DHT22;4761;49.490;10.908;2023-07-20T02:55:04;24.60;55.00
9446;DHT22;4761;49.490;10.908;2023-07-20T02:57:30;24.60;55.00
9446;DHT22;4761;49.490;10.908;2023-07-20T02:59:55;24.60;55.10
9446;DHT22;4761;49.490;10.908;2023-07-20T03:02:21;24.60;55.00
9446;DHT22;4761;49.490;10.908;2023-07-20T03:04:46;24.60;55.00
9446;DHT22;4761;49.490;10.908;2023-07-20T03:07:12;24.60;55.00
9446;DHT22;4761;49.490;10.908;2023-07-20T03:09:38;24.60;55.00
9446;DHT22;4761;49.490;10.908;2023-07-20T03:12:03;24.60;55.00
9446;DHT22;4761;49.490;10.908;2023-07-20T03:14:30;24.60;55.10
9446;DHT22;4761;49.490;10.908;2023-07-20T03:16:55;24.60;55.00
9446;DHT22;4761;49.490;10.908;2023-07-20T03:19:21;24.60;55.00
9446;DHT22;4761;49.490;10.908;2023-07-20T03:21:47;24.50;55.00
9446;DHT22;4761;49.490;10.908;2023-07-20T03:24:12;24.60;55.00
9446;DHT22;4761;49.490;10.908;2023-07-20T03:26:38;24.50;55.00
9446;DHT22;4761;49.490;10.908;2023-07-20T03:29:04;24.50;55.00
9446;DHT22;4761;49.490;10.908;2023-07-20T03:31:30;24.50;55.00
9446;DHT22;4761;49.490;10.908;2023-07-20T03:33:55;24.50;55.00
9446;DHT22;4761;49.490;10.908;2023-07-20T03:36:21;24.50;55.10
9446;DHT22;4761;49.490;10.908;2023-07-20T03:38:47;24.50;55.20
9446;DHT22;4761;49.490;10.908;2023-07-20T03:41:13;24.50;55.00
9446;DHT22;4761;49.490;10.908;2023-07-20T03:43:40;24.50;55.00
9446;DHT22;4761;49.490;10.908;2023-07-20T03:46:05;24.50;55.00
9446;DHT22;4761;49.490;10.908;2023-07-20T03:48:32;24.50;55.00
9446;DHT22;4761;49.490;10.908;2023-07-20T03:50:58;24.50;55.10
9446;DHT22;4761;49.490;10.908;2023-07-20T03:53:24;24.50;55.00
9446;DHT22;4761;49.490;10.908;2023-07-20T03:55:51;24.50;55.00
9446;DHT22;4761;49.490;10.908;2023-07-20T03:58:18;24.50;55.10
9446;DHT22;4761;49.490;10.908;2023-07-20T04:00:50;24.50;55.10
9446;DHT22;4761;49.490;10.908;2023-07-20T04:03:17;24.40;55.00
9446;DHT22;4761;49.490;10.908;2023-07-20T04:05:43;24.50;55.00
9446;DHT22;4761;49.490;10.908;2023-07-20T04:08:09;24.50;55.10
9446;DHT22;4761;49.490;10.908;2023-07-20T04:10:36;24.50;55.10
9446;DHT22;4761;49.490;10.908;2023-07-20T04:13:02;24.50;55.10
9446;DHT22;4761;49.490;10.908;2023-07-20T04:15:27;24.50;55.00
9446;DHT22;4761;49.490;10.908;2023-07-20T04:17:53;24.40;55.00
9446;DHT22;4761;49.490;10.908;2023-07-20T04:20:19;24.50;55.00
9446;DHT22;4761;49.490;10.908;2023-07-20T04:22:44;24.40;55.00
9446;DHT22;4761;49.490;10.908;2023-07-20T04:25:10;24.40;55.00
9446;DHT22;4761;49.490;10.908;2023-07-20T04:27:36;24.50;55.10
9446;DHT22;4761;49.490;10.908;2023-07-20T04:30:02;24.40;55.00
9446;DHT22;4761;49.490;10.908;2023-07-20T04:32:29;24.40;55.00
9446;DHT22;4761;49.490;10.908;2023-07-20T04:34:54;24.40;55.00
9446;DHT22;4761;49.490;10.908;2023-07-20T04:37:20;24.50;55.10
9446;DHT22;4761;49.490;10.908;2023-07-20T04:39:46;24.50;55.00
9446;DHT22;4761;49.490;10.908;2023-07-20T04:42:11;24.50;55.10
9446;DHT22;4761;49.490;10.908;2023-07-20T04:44:37;24.40;55.00
9446;DHT22;4761;49.490;10.908;2023-07-20T04:47:02;24.50;55.00
9446;DHT22;4761;49.490;10.908;2023-07-20T04:49:28;24.40;55.00
9446;DHT22;4761;49.490;10.908;2023-07-20T04:51:54;24.40;55.00
9446;DHT22;4761;49.490;10.908;2023-07-20T04:54:20;24.40;55.00
9446;DHT22;4761;49.490;10.908;2023-07-20T04:56:45;24.40;55.00
9446;DHT22;4761;49.490;10.908;2023-07-20T04:59:11;24.40;55.00
9446;DHT22;4761;49.490;10.908;2023-07-20T05:01:36;24.40;55.00
9446;DHT22;4761;49.490;10.908;2023-07-20T05:04:02;24.40;55.00
9446;DHT22;4761;49.490;10.908;2023-07-20T05:06:27;24.40;55.00
9446;DHT22;4761;49.490;10.908;2023-07-20T05:08:53;24.40;55.00
9446;DHT22;4761;49.490;10.908;2023-07-20T05:11:18;24.40;55.00
9446;DHT22;4761;49.490;10.908;2023-07-20T05:13:45;24.40;55.00
9446;DHT22;4761;49.490;10.908;2023-07-20T05:16:10;24.40;55.00
9446;DHT22;4761;49.490;10.908;2023-07-20T05:18:36;24.40;55.00
9446;DHT22;4761;49.490;10.908;2023-07-20T05:21:01;24.40;55.00
9446;DHT22;4761;49.490;10.908;2023-07-20T05:23:27;24.40;55.00
9446;DHT22;4761;49.490;10.908;2023-07-20T05:26:01;24.40;55.00
9446;DHT22;4761;49.490;10.908;2023-07-20T05:28:27;24.40;55.00
9446;DHT22;4761;49.490;10.908;2023-07-20T05:30:53;24.40;55.00
9446;DHT22;4761;49.490;10.908;2023-07-20T05:33:22;24.40;55.00
9446;DHT22;4761;49.490;10.908;2023-07-20T05:35:48;24.40;55.00
9446;DHT22;4761;49.490;10.908;2023-07-20T05:38:13;24.40;55.00
9446;DHT22;4761;49.490;10.908;2023-07-20T05:40:41;24.40;55.00
9446;DHT22;4761;49.490;10.908;2023-07-20T05:43:07;24.40;55.00
9446;DHT22;4761;49.490;10.908;2023-07-20T05:45:33;24.40;55.00
9446;DHT22;4761;49.490;10.908;2023-07-20T05:47:58;24.40;55.00
9446;DHT22;4761;49.490;10.908;2023-07-20T05:50:24;24.40;55.00
9446;DHT22;4761;49.490;10.908;2023-07-20T05:52:52;24.40;55.00
9446;DHT22;4761;49.490;10.908;2023-07-20T05:55:18;24.40;55.00
9446;DHT22;4761;49.490;10.908;2023-07-20T05:57:43;24.40;55.00
9446;DHT22;4761;49.490;10.908;2023-07-20T06:00:10;24.50;55.00
9446;DHT22;4761;49.490;10.908;2023-07-20T06:02:35;24.50;55.00
9446;DHT22;4761;49.490;10.908;2023-07-20T06:05:01;24.50;55.10
9446;DHT22;4761;49.490;10.908;2023-07-20T06:07:27;24.50;55.00
9446;DHT22;4761;49.490;10.908;2023-07-20T06:09:52;24.50;54.90
9446;DHT22;4761;49.490;10.908;2023-07-20T06:12:18;24.50;54.90
9446;DHT22;4761;49.490;10.908;2023-07-20T06:14:43;24.50;54.80
9446;DHT22;4761;49.490;10.908;2023-07-20T06:17:09;24.50;54.30
9446;DHT22;4761;49.490;10.908;2023-07-20T06:19:35;24.50;54.70
9446;DHT22;4761;49.490;10.908;2023-07-20T06:22:01;24.50;54.40
9446;DHT22;4761;49.490;10.908;2023-07-20T06:24:26;24.50;54.50
9446;DHT22;4761;49.490;10.908;2023-07-20T06:26:52;24.50;54.20
9446;DHT22;4761;49.490;10.908;2023-07-20T06:29:17;24.50;54.20
9446;DHT22;4761;49.490;10.908;2023-07-20T06:31:43;24.60;54.30
9446;DHT22;4761;49.490;10.908;2023-07-20T06:34:08;24.60;54.00
9446;DHT22;4761;49.490;10.908;2023-07-20T06:36:34;24.50;54.00
9446;DHT22;4761;49.490;10.908;2023-07-20T06:39:00;24.50;54.10
9446;DHT22;4761;49.490;10.908;2023-07-20T06:41:26;24.60;54.20
9446;DHT22;4761;49.490;10.908;2023-07-20T06:43:51;24.60;54.00
9446;DHT22;4761;49.490;10.908;2023-07-20T06:46:17;24.60;54.00
9446;DHT22;4761;49.490;10.908;2023-07-20T06:48:43;24.60;53.70
9446;DHT22;4761;49.490;10.908;2023-07-20T06:51:08;24.60;54.00
9446;DHT22;4761;49.490;10.908;2023-07-20T06:53:34;24.60;53.60
9446;DHT22;4761;49.490;10.908;2023-07-20T06:56:00;24.60;53.70
9446;DHT22;4761;49.490;10.908;2023-07-20T06:58:25;24.60;53.90
9446;DHT22;4761;49.490;10.908;2023-07-20T07:00:51;24.60;54.00
9446;DHT22;4761;49.490;10.908;2023-07-20T07:03:17;24.60;53.80
9446;DHT22;4761;49.490;10.908;2023-07-20T07:05:43;24.60;54.00
9446;DHT22;4761;49.490;10.908;2023-07-20T07:08:10;24.60;53.60
9446;DHT22;4761;49.490;10.908;2023-07-20T07:10:36;24.60;53.70
9446;DHT22;4761;49.490;10.908;2023-07-20T07:13:02;24.60;53.60
9446;DHT22;4761;49.490;10.908;2023-07-20T07:15:28;24.60;53.60
9446;DHT22;4761;49.490;10.908;2023-07-20T07:17:54;24.60;53.40
9446;DHT22;4761;49.490;10.908;2023-07-20T07:20:20;24.60;53.50
9446;DHT22;4761;49.490;10.908;2023-07-20T07:22:45;24.60;53.60
9446;DHT22;4761;49.490;10.908;2023-07-20T07:25:11;24.70;53.70
9446;DHT22;4761;49.490;10.908;2023-07-20T07:27:37;24.60;53.70
9446;DHT22;4761;49.490;10.908;2023-07-20T07:30:04;24.70;53.70
9446;DHT22;4761;49.490;10.908;2023-07-20T07:32:30;24.60;53.60
9446;DHT22;4761;49.490;10.908;2023-07-20T07:34:56;24.60;53.70
9446;DHT22;4761;49.490;10.908;2023-07-20T07:37:23;24.60;53.60
9446;DHT22;4761;49.490;10.908;2023-07-20T07:39:49;24.60;53.60
9446;DHT22;4761;49.490;10.908;2023-07-20T07:42:14;24.70;53.60
9446;DHT22;4761;49.490;10.908;2023-07-20T07:44:40;24.70;53.50
9446;DHT22;4761;49.490;10.908;2023-07-20T07:47:06;24.70;53.40
9446;DHT22;4761;49.490;10.908;2023-07-20T07:49:31;24.70;53.40
9446;DHT22;4761;49.490;10.908;2023-07-20T07:51:57;24.70;53.50
9446;DHT22;4761;49.490;10.908;2023-07-20T07:54:23;24.70;53.40
9446;DHT22;4761;49.490;10.908;2023-07-20T07:56:48;24.70;53.40
9446;DHT22;4761;49.490;10.908;2023-07-20T07:59:14;24.70;53.40
9446;DHT22;4761;49.490;10.908;2023-07-20T08:01:39;24.70;53.50
9446;DHT22;4761;49.490;10.908;2023-07-20T08:04:05;24.70;53.30
9446;DHT22;4761;49.490;10.908;2023-07-20T08:06:30;24.70;53.30
9446;DHT22;4761;49.490;10.908;2023-07-20T08:08:57;24.70;53.20
9446;DHT22;4761;49.490;10.908;2023-07-20T08:11:23;24.70;53.10
9446;DHT22;4761;49.490;10.908;2023-07-20T08:13:49;24.70;53.30
9446;DHT22;4761;49.490;10.908;2023-07-20T08:16:14;24.70;53.10
9446;DHT22;4761;49.490;10.908;2023-07-20T08:18:40;24.70;53.20
9446;DHT22;4761;49.490;10.908;2023-07-20T08:21:05;24.70;53.10
9446;DHT22;4761;49.490;10.908;2023-07-20T08:23:31;24.80;53.20
9446;DHT22;4761;49.490;10.908;2023-07-20T08:25:56;24.70;53.10
9446;DHT22;4761;49.490;10.908;2023-07-20T08:28:22;24.80;52.80
9446;DHT22;4761;49.490;10.908;2023-07-20T08:30:49;24.80;52.80
9446;DHT22;4761;49.490;10.908;2023-07-20T08:33:16;24.80;52.90
9446;DHT22;4761;49.490;10.908;2023-07-20T08:35:44;24.90;52.80
9446;DHT22;4761;49.490;10.908;2023-07-20T08:38:09;24.90;52.70
9446;DHT22;4761;49.490;10.908;2023-07-20T08:41:01;24.90;52.70
9446;DHT22;4761;49.490;10.908;2023-07-20T08:43:27;24.90;52.70
9446;DHT22;4761;49.490;10.908;2023-07-20T08:45:57;24.80;52.60
9446;DHT22;4761;49.490;10.908;2023-07-20T08:48:24;24.90;52.70
9446;DHT22;4761;49.490;10.908;2023-07-20T08:50:51;24.90;52.70
9446;DHT22;4761;49.490;10.908;2023-07-20T08:53:17;24.80;52.60
9446;DHT22;4761;49.490;10.908;2023-07-20T08:55:44;24.90;52.60
9446;DHT22;4761;49.490;10.908;2023-07-20T08:58:13;24.90;52.60
9446;DHT22;4761;49.490;10.908;2023-07-20T09:00:41;24.90;52.40
9446;DHT22;4761;49.490;10.908;2023-07-20T09:03:07;24.90;52.40
9446;DHT22;4761;49.490;10.908;2023-07-20T09:05:34;24.90;52.40
9446;DHT22;4761;49.490;10.908;2023-07-20T09:08:01;24.90;52.40
9446;DHT22;4761;49.490;10.908;2023-07-20T09:10:29;24.90;52.30
9446;DHT22;4761;49.490;10.908;2023-07-20T09:12:54;24.90;52.30
9446;DHT22;4761;49.490;10.908;2023-07-20T09:15:22;24.90;52.30
9446;DHT22;4761;49.490;10.908;2023-07-20T09:17:49;24.90;52.30
9446;DHT22;4761;49.490;10.908;2023-07-20T09:20:17;24.90;52.20
9446;DHT22;4761;49.490;10.908;2023-07-20T09:22:43;24.90;52.20
9446;DHT22;4761;49.490;10.908;2023-07-20T09:25:16;24.90;52.10
9446;DHT22;4761;49.490;10.908;2023-07-20T09:27:43;24.90;52.00
9446;DHT22;4761;49.490;10.908;2023-07-20T09:30:10;24.90;52.00
9446;DHT22;4761;49.490;10.908;2023-07-20T09:32:42;24.90;52.10
9446;DHT22;4761;49.490;10.908;2023-07-20T09:35:15;24.90;52.00
9446;DHT22;4761;49.490;10.908;2023-07-20T09:37:46;24.90;52.00
9446;DHT22;4761;49.490;10.908;2023-07-20T09:40:15;24.90;51.80
9446;DHT22;4761;49.490;10.908;2023-07-20T09:42:41;24.90;51.80
9446;DHT22;4761;49.490;10.908;2023-07-20T09:45:08;25.00;51.70
9446;DHT22;4761;49.490;10.908;2023-07-20T09:47:36;24.90;51.60
9446;DHT22;4761;49.490;10.908;2023-07-20T09:50:02;24.90;51.50
9446;DHT22;4761;49.490;10.908;2023-07-20T09:52:29;24.90;51.60
9446;DHT22;4761;49.490;10.908;2023-07-20T09:54:55;24.90;51.70
9446;DHT22;4761;49.490;10.908;2023-07-20T09:57:21;24.90;51.60
9446;DHT22;4761;49.490;10.908;2023-07-20T09:59:47;24.90;51.50
9446;DHT22;4761;49.490;10.908;2023-07-20T10:02:25;24.90;51.50
9446;DHT22;4761;49.490;10.908;2023-07-20T10:04:55;24.90;51.20
9446;DHT22;4761;49.490;10.908;2023-07-20T10:07:22;24.90;51.50
9446;DHT22;4761;49.490;10.908;2023-07-20T10:09:52;24.90;51.20
9446;DHT22;4761;49.490;10.908;2023-07-20T10:12:20;24.90;51.10
9446;DHT22;4761;49.490;10.908;2023-07-20T10:15:11;24.90;51.20
9446;DHT22;4761;49.490;10.908;2023-07-20T10:17:47;25.00;51.30
9446;DHT22;4761;49.490;10.908;2023-07-20T10:20:17;25.00;51.20
9446;DHT22;4761;49.490;10.908;2023-07-20T10:22:45;25.00;51.20
9446;DHT22;4761;49.490;10.908;2023-07-20T10:25:12;25.00;51.10
9446;DHT22;4761;49.490;10.908;2023-07-20T10:27:40;25.00;51.20
9446;DHT22;4761;49.490;10.908;2023-07-20T10:30:06;25.00;51.10
9446;DHT22;4761;49.490;10.908;2023-07-20T10:32:32;25.10;51.20
9446;DHT22;4761;49.490;10.908;2023-07-20T10:34:59;25.10;51.10
9446;DHT22;4761;49.490;10.908;2023-07-20T10:40:28;25.10;51.30
9446;DHT22;4761;49.490;10.908;2023-07-20T10:43:03;25.10;51.10
9446;DHT22;4761;49.490;10.908;2023-07-20T10:45:48;25.10;51.20
9446;DHT22;4761;49.490;10.908;2023-07-20T10:48:25;25.10;51.10
9446;DHT22;4761;49.490;10.908;2023-07-20T10:51:13;25.10;51.80
9446;DHT22;4761;49.490;10.908;2023-07-20T10:53:42;25.10;51.20
9446;DHT22;4761;49.490;10.908;2023-07-20T10:56:15;25.10;51.10
9446;DHT22;4761;49.490;10.908;2023-07-20T10:58:44;25.10;51.10
9446;DHT22;4761;49.490;10.908;2023-07-20T11:01:14;25.10;51.10
9446;DHT22;4761;49.490;10.908;2023-07-20T11:03:39;25.10;51.10
9446;DHT22;4761;49.490;10.908;2023-07-20T11:08:55;25.10;51.00
9446;DHT22;4761;49.490;10.908;2023-07-20T11:11:26;25.10;51.00
9446;DHT22;4761;49.490;10.908;2023-07-20T11:13:59;25.10;51.10
9446;DHT22;4761;49.490;10.908;2023-07-20T11:16:39;25.10;51.00
9446;DHT22;4761;49.490;10.908;2023-07-20T11:19:12;25.10;51.10
9446;DHT22;4761;49.490;10.908;2023-07-20T11:21:41;25.10;51.10
9446;DHT22;4761;49.490;10.908;2023-07-20T11:24:07;25.10;51.10
9446;DHT22;4761;49.490;10.908;2023-07-20T11:27:02;25.10;51.10
9446;DHT22;4761;49.490;10.908;2023-07-20T11:29:28;25.10;51.00
9446;DHT22;4761;49.490;10.908;2023-07-20T11:31:53;25.10;51.60
9446;DHT22;4761;49.490;10.908;2023-07-20T11:34:22;25.10;51.00
9446;DHT22;4761;49.490;10.908;2023-07-20T11:36:49;25.10;50.90
9446;DHT22;4761;49.490;10.908;2023-07-20T11:39:19;25.10;50.80
9446;DHT22;4761;49.490;10.908;2023-07-20T11:41:48;25.20;50.90
9446;DHT22;4761;49.490;10.908;2023-07-20T11:44:19;25.10;50.80
9446;DHT22;4761;49.490;10.908;2023-07-20T11:46:45;25.10;50.80
9446;DHT22;4761;49.490;10.908;2023-07-20T11:49:11;25.10;50.80
9446;DHT22;4761;49.490;10.908;2023-07-20T11:51:38;25.10;50.80
9446;DHT22;4761;49.490;10.908;2023-07-20T11:54:06;25.10;50.80
9446;DHT22;4761;49.490;10.908;2023-07-20T11:56:32;25.10;50.80
9446;DHT22;4761;49.490;10.908;2023-07-20T11:58:58;25.10;50.80
9446;DHT22;4761;49.490;10.908;2023-07-20T12:01:27;25.20;50.80
9446;DHT22;4761;49.490;10.908;2023-07-20T12:04:01;25.20;50.70
9446;DHT22;4761;49.490;10.908;2023-07-20T12:06:30;25.10;50.60
9446;DHT22;4761;49.490;10.908;2023-07-20T12:08:57;25.20;50.70
9446;DHT22;4761;49.490;10.908;2023-07-20T12:11:37;25.20;51.20
9446;DHT22;4761;49.490;10.908;2023-07-20T12:14:04;25.10;50.60
9446;DHT22;4761;49.490;10.908;2023-07-20T12:16:30;25.10;50.80
9446;DHT22;4761;49.490;10.908;2023-07-20T12:19:03;25.10;50.70
9446;DHT22;4761;49.490;10.908;2023-07-20T12:21:30;25.10;50.80
9446;DHT22;4761;49.490;10.908;2023-07-20T12:23:57;25.10;50.70
9446;DHT22;4761;49.490;10.908;2023-07-20T12:26:24;25.10;50.40
9446;DHT22;4761;49.490;10.908;2023-07-20T12:28:51;25.10;50.60
9446;DHT22;4761;49.490;10.908;2023-07-20T12:31:17;25.10;50.50
9446;DHT22;4761;49.490;10.908;2023-07-20T12:33:42;25.20;50.50
9446;DHT22;4761;49.490;10.908;2023-07-20T12:36:09;25.10;50.40
9446;DHT22;4761;49.490;10.908;2023-07-20T12:38:35;25.20;50.30
9446;DHT22;4761;49.490;10.908;2023-07-20T12:41:01;25.20;50.90
9446;DHT22;4761;49.490;10.908;2023-07-20T12:43:27;25.20;50.30
9446;DHT22;4761;49.490;10.908;2023-07-20T12:45:53;25.20;50.30
9446;DHT22;4761;49.490;10.908;2023-07-20T12:48:19;25.30;50.40
9446;DHT22;4761;49.490;10.908;2023-07-20T12:50:44;25.20;50.40
9446;DHT22;4761;49.490;10.908;2023-07-20T12:53:10;25.20;50.50
9446;DHT22;4761;49.490;10.908;2023-07-20T12:55:37;25.20;50.50
9446;DHT22;4761;49.490;10.908;2023-07-20T12:58:02;25.20;50.50
9446;DHT22;4761;49.490;10.908;2023-07-20T13:00:28;25.20;50.50
9446;DHT22;4761;49.490;10.908;2023-07-20T13:02:54;25.20;50.40
9446;DHT22;4761;49.490;10.908;2023-07-20T13:05:19;25.20;50.40
9446;DHT22;4761;49.490;10.908;2023-07-20T13:07:45;25.30;50.40
9446;DHT22;4761;49.490;10.908;2023-07-20T13:10:11;25.30;50.40
9446;DHT22;4761;49.490;10.908;2023-07-20T13:12:38;25.30;50.40
9446;DHT22;4761;49.490;10.908;2023-07-20T13:15:05;25.30;50.40
9446;DHT22;4761;49.490;10.908;2023-07-20T13:17:32;25.30;50.40
9446;DHT22;4761;49.490;10.908;2023-07-20T13:19:58;25.30;50.40
9446;DHT22;4761;49.490;10.908;2023-07-20T13:22:24;25.30;50.40
9446;DHT22;4761;49.490;10.908;2023-07-20T13:24:49;25.30;50.30
9446;DHT22;4761;49.490;10.908;2023-07-20T13:27:16;25.20;50.30
9446;DHT22;4761;49.490;10.908;2023-07-20T13:29:42;25.10;50.20
9446;DHT22;4761;49.490;10.908;2023-07-20T13:32:08;25.00;50.50
9446;DHT22;4761;49.490;10.908;2023-07-20T13:34:34;25.00;50.50
9446;DHT22;4761;49.490;10.908;2023-07-20T13:37:00;25.10;50.20
9446;DHT22;4761;49.490;10.908;2023-07-20T13:39:26;25.20;50.10
9446;DHT22;4761;49.490;10.908;2023-07-20T13:41:53;25.20;50.00
9446;DHT22;4761;49.490;10.908;2023-07-20T13:44:19;25.30;49.90
9446;DHT22;4761;49.490;10.908;2023-07-20T13:46:49;25.30;49.80
9446;DHT22;4761;49.490;10.908;2023-07-20T13:49:15;25.30;49.70
9446;DHT22;4761;49.490;10.908;2023-07-20T13:51:41;25.30;49.70
9446;DHT22;4761;49.490;10.908;2023-07-20T13:54:07;25.40;49.70
9446;DHT22;4761;49.490;10.908;2023-07-20T13:56:33;25.40;49.70
9446;DHT22;4761;49.490;10.908;2023-07-20T13:58:58;25.40;49.70
9446;DHT22;4761;49.490;10.908;2023-07-20T14:01:24;25.30;49.70
9446;DHT22;4761;49.490;10.908;2023-07-20T14:03:50;25.40;49.70
9446;DHT22;4761;49.490;10.908;2023-07-20T14:06:16;25.30;49.70
9446;DHT22;4761;49.490;10.908;2023-07-20T14:08:42;25.40;49.70
9446;DHT22;4761;49.490;10.908;2023-07-20T14:11:12;25.40;49.60
9446;DHT22;4761;49.490;10.908;2023-07-20T14:13:37;25.40;49.60
9446;DHT22;4761;49.490;10.908;2023-07-20T14:16:03;25.40;49.60
9446;DHT22;4761;49.490;10.908;2023-07-20T14:18:29;25.40;49.60
9446;DHT22;4761;49.490;10.908;2023-07-20T14:20:54;25.40;49.60
9446;DHT22;4761;49.490;10.908;2023-07-20T14:23:20;25.40;49.50
9446;DHT22;4761;49.490;10.908;2023-07-20T14:25:45;25.40;49.50
9446;DHT22;4761;49.490;10.908;2023-07-20T14:28:11;25.40;49.60
9446;DHT22;4761;49.490;10.908;2023-07-20T14:30:37;25.40;49.60
9446;DHT22;4761;49.490;10.908;2023-07-20T14:33:02;25.40;49.70
9446;DHT22;4761;49.490;10.908;2023-07-20T14:35:28;25.30;49.60
9446;DHT22;4761;49.490;10.908;2023-07-20T14:37:53;25.40;49.70
9446;DHT22;4761;49.490;10.908;2023-07-20T14:40:19;25.30;49.70
9446;DHT22;4761;49.490;10.908;2023-07-20T14:42:44;25.30;49.90
9446;DHT22;4761;49.490;10.908;2023-07-20T14:45:10;25.20;49.90
9446;DHT22;4761;49.490;10.908;2023-07-20T14:47:36;25.20;50.00
9446;DHT22;4761;49.490;10.908;2023-07-20T14:50:02;25.20;50.00
9446;DHT22;4761;49.490;10.908;2023-07-20T14:52:28;25.20;49.90
9446;DHT22;4761;49.490;10.908;2023-07-20T14:54:54;25.20;49.80
9446;DHT22;4761;49.490;10.908;2023-07-20T14:57:20;25.20;49.80
9446;DHT22;4761;49.490;10.908;2023-07-20T14:59:47;25.20;49.90
9446;DHT22;4761;49.490;10.908;2023-07-20T15:02:12;25.10;49.90
9446;DHT22;4761;49.490;10.908;2023-07-20T15:04:48;25.10;49.90
9446;DHT22;4761;49.490;10.908;2023-07-20T15:07:20;25.10;49.90
9446;DHT22;4761;49.490;10.908;2023-07-20T15:09:47;25.20;49.80
9446;DHT22;4761;49.490;10.908;2023-07-20T15:12:13;25.20;49.80
9446;DHT22;4761;49.490;10.908;2023-07-20T15:14:40;25.20;49.70
9446;DHT22;4761;49.490;10.908;2023-07-20T15:17:06;25.20;49.60
9446;DHT22;4761;49.490;10.908;2023-07-20T15:19:32;25.20;49.60
9446;DHT22;4761;49.490;10.908;2023-07-20T15:21:59;25.30;49.60
9446;DHT22;4761;49.490;10.908;2023-07-20T15:24:25;25.30;50.00
9446;DHT22;4761;49.490;10.908;2023-07-20T15:26:50;25.30;49.40
9446;DHT22;4761;49.490;10.908;2023-07-20T15:29:16;25.20;49.40
9446;DHT22;4761;49.490;10.908;2023-07-20T15:31:41;25.30;49.40
9446;DHT22;4761;49.490;10.908;2023-07-20T15:34:07;25.30;49.40
9446;DHT22;4761;49.490;10.908;2023-07-20T15:36:32;25.30;49.50
9446;DHT22;4761;49.490;10.908;2023-07-20T15:38:58;25.20;49.40
9446;DHT22;4761;49.490;10.908;2023-07-20T15:41:23;25.20;49.40
9446;DHT22;4761;49.490;10.908;2023-07-20T15:43:49;25.20;49.40
9446;DHT22;4761;49.490;10.908;2023-07-20T15:48:46;25.20;49.30
9446;DHT22;4761;49.490;10.908;2023-07-20T15:51:12;25.30;49.30
9446;DHT22;4761;49.490;10.908;2023-07-20T15:53:37;25.30;49.90
9446;DHT22;4761;49.490;10.908;2023-07-20T15:56:03;25.30;49.30
9446;DHT22;4761;49.490;10.908;2023-07-20T15:58:29;25.30;49.20
9446;DHT22;4761;49.490;10.908;2023-07-20T16:00:55;25.30;49.30